PWSweather.com
Personal Weather Stations
Station Observations
KCOGRAND2
Redlands, Southcamp Road & Dakota Circle, Grand Junction, CO 81507

Redlands, Southcamp Road & Dakota CircleGrand Junction, CO 81507

Lat: 39.055, Lon: -108.637

Elevation: 4870

Station Type: RadioShack WX200

Latest ConditionsUpdated 3:10:50 PM MDT Tuesday, Sep 2, 2014
Currently Today's Max Today's Min Today's Average
Temperature 85.6°F29.8°C 87.3°F30.7°C 56.5°F13.6°C 68.9°F20.5°C
Dew Point -5537.2°C 32.5°F0.3°C 12.0°F-11.1°C 24.8°F-4.0°C
Winds 4.0 mph SSW6.4 kmh SSW 10.0 mph N16.1 kmh N - 4.1 mph 6.6 kmh
Wind Gusts 9.6 mph15.4 kmh 15.2 mph24.5 kmh - -
Humidity - 40% 11% 24%
Pressure 25.04 in848.0 mb 25.13 in851.0 mb 25.04 in848.0 mb -
Hour Temp Dew Point Humidity Winds Wind Gusts Pressure Precip Precip Rate Daily Precip Total
03:10 PM 85.6°F29.8°C -5537.2°C - 4.0 mph SSW6.4 kmh SSW 9.6 mph15.4 kmh 25.04 in848.0 mb 0.00 in0.0 mm 0.00 in/hr0.0 mm/hr 0.00 in0.0 mm
03:05 PM 86.9°F30.5°C -5537.2°C - 3.0 mph S4.8 kmh S 6.3 mph10.1 kmh 25.04 in848.0 mb 0.00 in0.0 mm 0.00 in/hr0.0 mm/hr 0.00 in0.0 mm
03:00 PM 87.3°F30.7°C -5537.2°C - 4.0 mph S6.4 kmh S 5.8 mph9.3 kmh 25.04 in848.0 mb 0.00 in0.0 mm 0.00 in/hr0.0 mm/hr 0.00 in0.0 mm
02:55 PM 87.1°F30.6°C -5537.2°C - 6.0 mph SW9.7 kmh SW 10.1 mph16.3 kmh 25.04 in848.0 mb 0.00 in0.0 mm 0.00 in/hr0.0 mm/hr 0.00 in0.0 mm
02:50 PM 86.0°F30.0°C -5537.2°C - 6.0 mph SSW9.7 kmh SSW 10.5 mph16.9 kmh 25.04 in848.0 mb 0.00 in0.0 mm 0.00 in/hr0.0 mm/hr 0.00 in0.0 mm
02:45 PM 86.5°F30.3°C -5537.2°C - 7.0 mph SSE11.3 kmh SSE 10.5 mph16.9 kmh 25.04 in848.0 mb 0.00 in0.0 mm 0.00 in/hr0.0 mm/hr 0.00 in0.0 mm
02:40 PM 86.5°F30.3°C -5537.2°C - 7.0 mph SSE11.3 kmh SSE 10.1 mph16.3 kmh 25.04 in848.0 mb 0.00 in0.0 mm 0.00 in/hr0.0 mm/hr 0.00 in0.0 mm
02:35 PM 85.6°F29.8°C -5537.2°C - 6.0 mph SSW9.7 kmh SSW 10.5 mph16.9 kmh 25.04 in848.0 mb 0.00 in0.0 mm 0.00 in/hr0.0 mm/hr 0.00 in0.0 mm
02:30 PM 86.5°F30.3°C -5537.2°C - 5.0 mph SW8.0 kmh SW 7.4 mph11.9 kmh 25.04 in848.0 mb 0.00 in0.0 mm 0.00 in/hr0.0 mm/hr 0.00 in0.0 mm
02:25 PM 85.6°F29.8°C -5537.2°C - 5.0 mph SW8.0 kmh SW 6.7 mph10.8 kmh 25.04 in848.0 mb 0.00 in0.0 mm 0.00 in/hr0.0 mm/hr 0.00 in0.0 mm
02:20 PM 84.6°F29.2°C -5537.2°C - 7.0 mph SW11.3 kmh SW 9.2 mph14.8 kmh 25.04 in848.0 mb 0.00 in0.0 mm 0.00 in/hr0.0 mm/hr 0.00 in0.0 mm
02:15 PM 85.3°F29.6°C -5537.2°C - 7.0 mph SSW11.3 kmh SSW 12.1 mph19.5 kmh 25.07 in849.0 mb 0.00 in0.0 mm 0.00 in/hr0.0 mm/hr 0.00 in0.0 mm
02:10 PM 84.6°F29.2°C -5537.2°C - 6.0 mph S9.7 kmh S 9.6 mph15.4 kmh 25.07 in849.0 mb 0.00 in0.0 mm 0.00 in/hr0.0 mm/hr 0.00 in0.0 mm
02:05 PM 84.6°F29.2°C -5537.2°C - 6.0 mph S9.7 kmh S 11.0 mph17.7 kmh 25.07 in849.0 mb 0.00 in0.0 mm 0.00 in/hr0.0 mm/hr 0.00 in0.0 mm
02:00 PM 84.6°F29.2°C -5537.2°C - 5.0 mph S8.0 kmh S 9.6 mph15.4 kmh 25.07 in849.0 mb 0.00 in0.0 mm 0.00 in/hr0.0 mm/hr 0.00 in0.0 mm
01:55 PM 84.2°F29.0°C -5537.2°C - 5.0 mph S8.0 kmh S 11.0 mph17.7 kmh 25.07 in849.0 mb 0.00 in0.0 mm 0.00 in/hr0.0 mm/hr 0.00 in0.0 mm
01:50 PM 84.6°F29.2°C -5537.2°C - 4.0 mph S6.4 kmh S 8.7 mph14.0 kmh 25.07 in849.0 mb 0.00 in0.0 mm 0.00 in/hr0.0 mm/hr 0.00 in0.0 mm
01:45 PM 84.2°F29.0°C -5537.2°C - 4.0 mph S6.4 kmh S 6.7 mph10.8 kmh 25.07 in849.0 mb 0.00 in0.0 mm 0.00 in/hr0.0 mm/hr 0.00 in0.0 mm
01:40 PM 83.8°F28.8°C -5537.2°C - 5.0 mph WSW8.0 kmh WSW 7.8 mph12.6 kmh 25.07 in849.0 mb 0.00 in0.0 mm 0.00 in/hr0.0 mm/hr 0.00 in0.0 mm
01:35 PM 83.5°F28.6°C -5537.2°C - 4.0 mph NW6.4 kmh NW 7.4 mph11.9 kmh 25.07 in849.0 mb 0.00 in0.0 mm 0.00 in/hr0.0 mm/hr 0.00 in0.0 mm
01:30 PM 83.7°F28.7°C -5537.2°C - 4.0 mph NW6.4 kmh NW 5.8 mph9.3 kmh 25.07 in849.0 mb 0.00 in0.0 mm 0.00 in/hr0.0 mm/hr 0.00 in0.0 mm
01:25 PM 82.9°F28.3°C -5537.2°C - 4.0 mph NNW6.4 kmh NNW 7.4 mph11.9 kmh 25.07 in849.0 mb 0.00 in0.0 mm 0.00 in/hr0.0 mm/hr 0.00 in0.0 mm
01:20 PM 82.4°F28.0°C -5537.2°C - 3.0 mph N4.8 kmh N 7.8 mph12.6 kmh 25.07 in849.0 mb 0.00 in0.0 mm 0.00 in/hr0.0 mm/hr 0.00 in0.0 mm
01:15 PM 82.4°F28.0°C -5537.2°C - 4.0 mph N6.4 kmh N 5.8 mph9.3 kmh 25.07 in849.0 mb 0.00 in0.0 mm 0.00 in/hr0.0 mm/hr 0.00 in0.0 mm
01:10 PM 81.3°F27.4°C -5537.2°C - 4.0 mph NNW6.4 kmh NNW 6.7 mph10.8 kmh 25.07 in849.0 mb 0.00 in0.0 mm 0.00 in/hr0.0 mm/hr 0.00 in0.0 mm
01:05 PM 81.3°F27.4°C -5537.2°C - 3.0 mph NNW4.8 kmh NNW 7.4 mph11.9 kmh 25.07 in849.0 mb 0.00 in0.0 mm 0.00 in/hr0.0 mm/hr 0.00 in0.0 mm
01:00 PM 82.0°F27.8°C -5537.2°C - 2.0 mph WNW3.2 kmh WNW 7.4 mph11.9 kmh 25.07 in849.0 mb 0.00 in0.0 mm 0.00 in/hr0.0 mm/hr 0.00 in0.0 mm
12:55 PM 81.0°F27.2°C -5537.2°C - 3.0 mph WSW4.8 kmh WSW 7.4 mph11.9 kmh 25.07 in849.0 mb 0.00 in0.0 mm 0.00 in/hr0.0 mm/hr 0.00 in0.0 mm
12:50 PM 80.4°F26.9°C -5537.2°C - 4.0 mph WSW6.4 kmh WSW 6.7 mph10.8 kmh 25.07 in849.0 mb 0.00 in0.0 mm 0.00 in/hr0.0 mm/hr 0.00 in0.0 mm
12:45 PM 80.1°F26.7°C -5537.2°C - 4.0 mph WSW6.4 kmh WSW 6.9 mph11.1 kmh 25.10 in850.0 mb 0.00 in0.0 mm 0.00 in/hr0.0 mm/hr 0.00 in0.0 mm
12:40 PM 80.2°F26.8°C -5537.2°C - 4.0 mph WSW6.4 kmh WSW 7.8 mph12.6 kmh 25.10 in850.0 mb 0.00 in0.0 mm 0.00 in/hr0.0 mm/hr 0.00 in0.0 mm
12:35 PM 80.6°F27.0°C -5537.2°C - 4.0 mph WSW6.4 kmh WSW 9.2 mph14.8 kmh 25.10 in850.0 mb 0.00 in0.0 mm 0.00 in/hr0.0 mm/hr 0.00 in0.0 mm
12:30 PM 79.2°F26.2°C -5537.2°C - 4.0 mph W6.4 kmh W 7.8 mph12.6 kmh 25.10 in850.0 mb 0.00 in0.0 mm 0.00 in/hr0.0 mm/hr 0.00 in0.0 mm
12:25 PM 79.2°F26.2°C -5537.2°C - 4.0 mph NW6.4 kmh NW 6.7 mph10.8 kmh 25.10 in850.0 mb 0.00 in0.0 mm 0.00 in/hr0.0 mm/hr 0.00 in0.0 mm
12:20 PM 79.2°F26.2°C -5537.2°C - 4.0 mph NW6.4 kmh NW 6.9 mph11.1 kmh 25.10 in850.0 mb 0.00 in0.0 mm 0.00 in/hr0.0 mm/hr 0.00 in0.0 mm
12:15 PM 79.3°F26.3°C -5537.2°C - 3.0 mph NNW4.8 kmh NNW 7.8 mph12.6 kmh 25.10 in850.0 mb 0.00 in0.0 mm 0.00 in/hr0.0 mm/hr 0.00 in0.0 mm
12:10 PM 80.6°F27.0°C -5537.2°C - 4.0 mph NNW6.4 kmh NNW 8.7 mph14.0 kmh 25.10 in850.0 mb 0.00 in0.0 mm 0.00 in/hr0.0 mm/hr 0.00 in0.0 mm
12:05 PM 78.4°F25.8°C -5537.2°C - 6.0 mph N9.7 kmh N 9.2 mph14.8 kmh 25.10 in850.0 mb 0.00 in0.0 mm 0.00 in/hr0.0 mm/hr 0.00 in0.0 mm
12:00 PM 79.9°F26.6°C -5537.2°C - 4.0 mph NNW6.4 kmh NNW 8.7 mph14.0 kmh 25.10 in850.0 mb 0.00 in0.0 mm 0.00 in/hr0.0 mm/hr 0.00 in0.0 mm
11:55 AM 78.6°F25.9°C -5537.2°C - 3.0 mph WNW4.8 kmh WNW 6.7 mph10.8 kmh 25.10 in850.0 mb 0.00 in0.0 mm 0.00 in/hr0.0 mm/hr 0.00 in0.0 mm
11:50 AM 78.3°F25.7°C -5537.2°C - 5.0 mph NW8.0 kmh NW 7.8 mph12.6 kmh 25.10 in850.0 mb 0.00 in0.0 mm 0.00 in/hr0.0 mm/hr 0.00 in0.0 mm
11:45 AM 77.7°F25.4°C -5537.2°C - 6.0 mph NW9.7 kmh NW 8.7 mph14.0 kmh 25.10 in850.0 mb 0.00 in0.0 mm 0.00 in/hr0.0 mm/hr 0.00 in0.0 mm
11:40 AM 77.4°F25.2°C -5537.2°C - 6.0 mph NW9.7 kmh NW 9.2 mph14.8 kmh 25.10 in850.0 mb 0.00 in0.0 mm 0.00 in/hr0.0 mm/hr 0.00 in0.0 mm
11:35 AM 77.4°F25.2°C -5537.2°C - 6.0 mph NNW9.7 kmh NNW 10.5 mph16.9 kmh 25.10 in850.0 mb 0.00 in0.0 mm 0.00 in/hr0.0 mm/hr 0.00 in0.0 mm
11:30 AM 77.0°F25.0°C -5537.2°C - 4.0 mph NNW6.4 kmh NNW 10.1 mph16.3 kmh 25.10 in850.0 mb 0.00 in0.0 mm 0.00 in/hr0.0 mm/hr 0.00 in0.0 mm
11:25 AM 76.5°F24.7°C -5537.2°C - 4.0 mph NNW6.4 kmh NNW 5.8 mph9.3 kmh 25.10 in850.0 mb 0.00 in0.0 mm 0.00 in/hr0.0 mm/hr 0.00 in0.0 mm
11:20 AM 76.3°F24.6°C -5537.2°C - 5.0 mph N8.0 kmh N 6.9 mph11.1 kmh 25.10 in850.0 mb 0.00 in0.0 mm 0.00 in/hr0.0 mm/hr 0.00 in0.0 mm
11:15 AM 75.6°F24.2°C -5537.2°C - 5.0 mph N8.0 kmh N 7.8 mph12.6 kmh 25.13 in851.0 mb 0.00 in0.0 mm 0.00 in/hr0.0 mm/hr 0.00 in0.0 mm
11:10 AM 75.6°F24.2°C -5537.2°C - 5.0 mph NNW8.0 kmh NNW 7.8 mph12.6 kmh 25.13 in851.0 mb 0.00 in0.0 mm 0.00 in/hr0.0 mm/hr 0.00 in0.0 mm
11:05 AM 74.8°F23.8°C -5537.2°C - 5.0 mph NNW8.0 kmh NNW 6.9 mph11.1 kmh 25.13 in851.0 mb 0.00 in0.0 mm 0.00 in/hr0.0 mm/hr 0.00 in0.0 mm
11:00 AM 74.1°F23.4°C 16.3°F-8.7°C 11% 6.0 mph NNW9.7 kmh NNW 8.7 mph14.0 kmh 25.13 in851.0 mb 0.00 in0.0 mm 0.00 in/hr0.0 mm/hr 0.00 in0.0 mm
10:55 AM 73.9°F23.3°C 16.2°F-8.8°C 11% 6.0 mph N9.7 kmh N 9.6 mph15.4 kmh 25.13 in851.0 mb 0.00 in0.0 mm 0.00 in/hr0.0 mm/hr 0.00 in0.0 mm
10:50 AM 73.6°F23.1°C 15.8°F-9.0°C 11% 7.0 mph N11.3 kmh N 9.6 mph15.4 kmh 25.13 in851.0 mb 0.00 in0.0 mm 0.00 in/hr0.0 mm/hr 0.00 in0.0 mm
10:45 AM 72.5°F22.5°C 15.1°F-9.4°C 11% 7.0 mph NNW11.3 kmh NNW 10.5 mph16.9 kmh 25.13 in851.0 mb 0.00 in0.0 mm 0.00 in/hr0.0 mm/hr 0.00 in0.0 mm
10:40 AM 72.0°F22.2°C 14.5°F-9.7°C 11% 7.0 mph N11.3 kmh N 10.5 mph16.9 kmh 25.13 in851.0 mb 0.00 in0.0 mm 0.00 in/hr0.0 mm/hr 0.00 in0.0 mm
10:35 AM 72.3°F22.4°C 20.5°F-6.4°C 14% 8.0 mph N12.9 kmh N 11.6 mph18.7 kmh 25.13 in851.0 mb 0.00 in0.0 mm 0.00 in/hr0.0 mm/hr 0.00 in0.0 mm
10:30 AM 72.0°F22.2°C 20.1°F-6.6°C 14% 7.0 mph N11.3 kmh N 11.0 mph17.7 kmh 25.13 in851.0 mb 0.00 in0.0 mm 0.00 in/hr0.0 mm/hr 0.00 in0.0 mm
10:25 AM 72.0°F22.2°C 20.1°F-6.6°C 14% 7.0 mph NNW11.3 kmh NNW 10.5 mph16.9 kmh 25.13 in851.0 mb 0.00 in0.0 mm 0.00 in/hr0.0 mm/hr 0.00 in0.0 mm
10:20 AM 71.4°F21.9°C 19.8°F-6.8°C 14% 7.0 mph NNW11.3 kmh NNW 11.6 mph18.7 kmh 25.13 in851.0 mb 0.00 in0.0 mm 0.00 in/hr0.0 mm/hr 0.00 in0.0 mm
10:15 AM 70.9°F21.6°C 19.4°F-7.0°C 14% 6.0 mph N9.7 kmh N 11.6 mph18.7 kmh 25.13 in851.0 mb 0.00 in0.0 mm 0.00 in/hr0.0 mm/hr 0.00 in0.0 mm
10:10 AM 70.5°F21.4°C 23.5°F-4.7°C 17% 6.0 mph NNW9.7 kmh NNW 8.7 mph14.0 kmh 25.13 in851.0 mb 0.00 in0.0 mm 0.00 in/hr0.0 mm/hr 0.00 in0.0 mm
10:05 AM 70.2°F21.2°C 23.4°F-4.8°C 17% 7.0 mph NNW11.3 kmh NNW 9.2 mph14.8 kmh 25.13 in851.0 mb 0.00 in0.0 mm 0.00 in/hr0.0 mm/hr 0.00 in0.0 mm
10:00 AM 69.8°F21.0°C 25.7°F-3.5°C 19% 7.0 mph N11.3 kmh N 12.5 mph20.1 kmh 25.13 in851.0 mb 0.00 in0.0 mm 0.00 in/hr0.0 mm/hr 0.00 in0.0 mm
09:55 AM 69.8°F21.0°C 25.7°F-3.5°C 19% 8.0 mph N12.9 kmh N 11.0 mph17.7 kmh 25.13 in851.0 mb 0.00 in0.0 mm 0.00 in/hr0.0 mm/hr 0.00 in0.0 mm
09:49 AM 68.7°F20.4°C 26.1°F-3.3°C 20% 9.0 mph N14.5 kmh N 14.8 mph23.8 kmh 25.13 in851.0 mb 0.00 in0.0 mm 0.00 in/hr0.0 mm/hr 0.00 in0.0 mm
09:44 AM 68.7°F20.4°C 28.4°F-2.0°C 22% 7.0 mph N11.3 kmh N 15.2 mph24.5 kmh 25.13 in851.0 mb 0.00 in0.0 mm 0.00 in/hr0.0 mm/hr 0.00 in0.0 mm
09:39 AM 68.0°F20.0°C 28.8°F-1.8°C 23% 7.0 mph N11.3 kmh N 12.1 mph19.5 kmh 25.13 in851.0 mb 0.00 in0.0 mm 0.00 in/hr0.0 mm/hr 0.00 in0.0 mm
09:34 AM 67.6°F19.8°C 28.6°F-1.9°C 23% 8.0 mph N12.9 kmh N 11.0 mph17.7 kmh 25.13 in851.0 mb 0.00 in0.0 mm 0.00 in/hr0.0 mm/hr 0.00 in0.0 mm
09:29 AM 66.9°F19.4°C 27.9°F-2.3°C 23% 8.0 mph N12.9 kmh N 13.0 mph20.9 kmh 25.13 in851.0 mb 0.00 in0.0 mm 0.00 in/hr0.0 mm/hr 0.00 in0.0 mm
09:24 AM 66.7°F19.3°C 28.8°F-1.8°C 24% 7.0 mph N11.3 kmh N 12.1 mph19.5 kmh 25.13 in851.0 mb 0.00 in0.0 mm 0.00 in/hr0.0 mm/hr 0.00 in0.0 mm
09:19 AM 66.6°F19.2°C 28.6°F-1.9°C 24% 7.0 mph N11.3 kmh N 10.5 mph16.9 kmh 25.13 in851.0 mb 0.00 in0.0 mm 0.00 in/hr0.0 mm/hr 0.00 in0.0 mm
09:14 AM 66.2°F19.0°C 28.4°F-2.0°C 24% 7.0 mph N11.3 kmh N 10.1 mph16.3 kmh 25.13 in851.0 mb 0.00 in0.0 mm 0.00 in/hr0.0 mm/hr 0.00 in0.0 mm
09:09 AM 66.2°F19.0°C 28.4°F-2.0°C 24% 6.0 mph N9.7 kmh N 8.7 mph14.0 kmh 25.13 in851.0 mb 0.00 in0.0 mm 0.00 in/hr0.0 mm/hr 0.00 in0.0 mm
09:04 AM 65.7°F18.7°C 28.9°F-1.7°C 25% 6.0 mph N9.7 kmh N 11.0 mph17.7 kmh 25.13 in851.0 mb 0.00 in0.0 mm 0.00 in/hr0.0 mm/hr 0.00 in0.0 mm
08:59 AM 64.9°F18.3°C 28.2°F-2.1°C 25% 7.0 mph N11.3 kmh N 10.5 mph16.9 kmh 25.13 in851.0 mb 0.00 in0.0 mm 0.00 in/hr0.0 mm/hr 0.00 in0.0 mm
08:54 AM 64.2°F17.9°C 27.7°F-2.4°C 25% 6.0 mph N9.7 kmh N 10.5 mph16.9 kmh 25.13 in851.0 mb 0.00 in0.0 mm 0.00 in/hr0.0 mm/hr 0.00 in0.0 mm
08:49 AM 64.4°F18.0°C 27.9°F-2.3°C 25% 6.0 mph N9.7 kmh N 8.3 mph13.4 kmh 25.13 in851.0 mb 0.00 in0.0 mm 0.00 in/hr0.0 mm/hr 0.00 in0.0 mm
08:44 AM 64.2°F17.9°C 26.6°F-3.0°C 24% 6.0 mph N9.7 kmh N 8.3 mph13.4 kmh 25.13 in851.0 mb 0.00 in0.0 mm 0.00 in/hr0.0 mm/hr 0.00 in0.0 mm
08:39 AM 64.0°F17.8°C 26.6°F-3.0°C 24% 6.0 mph N9.7 kmh N 9.2 mph14.8 kmh 25.13 in851.0 mb 0.00 in0.0 mm 0.00 in/hr0.0 mm/hr 0.00 in0.0 mm
08:34 AM 64.2°F17.9°C 27.7°F-2.4°C 25% 8.0 mph N12.9 kmh N 11.2 mph18.0 kmh 25.13 in851.0 mb 0.00 in0.0 mm 0.00 in/hr0.0 mm/hr 0.00 in0.0 mm
08:29 AM 63.5°F17.5°C 27.1°F-2.7°C 25% 8.0 mph N12.9 kmh N 12.5 mph20.1 kmh 25.13 in851.0 mb 0.00 in0.0 mm 0.00 in/hr0.0 mm/hr 0.00 in0.0 mm
08:24 AM 63.3°F17.4°C 27.9°F-2.3°C 26% 8.0 mph N12.9 kmh N 10.5 mph16.9 kmh 25.13 in851.0 mb 0.00 in0.0 mm 0.00 in/hr0.0 mm/hr 0.00 in0.0 mm
08:19 AM 62.6°F17.0°C 27.3°F-2.6°C 26% 7.0 mph N11.3 kmh N 11.2 mph18.0 kmh 25.13 in851.0 mb 0.00 in0.0 mm 0.00 in/hr0.0 mm/hr 0.00 in0.0 mm
08:14 AM 62.6°F17.0°C 28.2°F-2.1°C 27% 8.0 mph N12.9 kmh N 11.0 mph17.7 kmh 25.13 in851.0 mb 0.00 in0.0 mm 0.00 in/hr0.0 mm/hr 0.00 in0.0 mm
08:09 AM 62.1°F16.7°C 27.7°F-2.4°C 27% 8.0 mph N12.9 kmh N 10.5 mph16.9 kmh 25.13 in851.0 mb 0.00 in0.0 mm 0.00 in/hr0.0 mm/hr 0.00 in0.0 mm
08:04 AM 62.2°F16.8°C 27.0°F-2.8°C 26% 9.0 mph N14.5 kmh N 12.1 mph19.5 kmh 25.13 in851.0 mb 0.00 in0.0 mm 0.00 in/hr0.0 mm/hr 0.00 in0.0 mm
07:59 AM 62.4°F16.9°C 27.1°F-2.7°C 26% 9.0 mph 14.5 kmh 12.1 mph19.5 kmh 25.13 in851.0 mb 0.00 in0.0 mm 0.00 in/hr0.0 mm/hr 0.00 in0.0 mm
07:54 AM 62.6°F17.0°C 27.3°F-2.6°C 26% 10.0 mph N16.1 kmh N 14.3 mph23.0 kmh 25.13 in851.0 mb 0.00 in0.0 mm 0.00 in/hr0.0 mm/hr 0.00 in0.0 mm
07:49 AM 62.6°F17.0°C 27.3°F-2.6°C 26% 9.0 mph N14.5 kmh N 13.4 mph21.6 kmh 25.13 in851.0 mb 0.00 in0.0 mm 0.00 in/hr0.0 mm/hr 0.00 in0.0 mm
07:44 AM 62.2°F16.8°C 27.9°F-2.3°C 27% 8.0 mph N12.9 kmh N 13.4 mph21.6 kmh 25.13 in851.0 mb 0.00 in0.0 mm 0.00 in/hr0.0 mm/hr 0.00 in0.0 mm
07:39 AM 61.7°F16.5°C 28.2°F-2.1°C 28% 8.0 mph N12.9 kmh N 11.0 mph17.7 kmh 25.13 in851.0 mb 0.00 in0.0 mm 0.00 in/hr0.0 mm/hr 0.00 in0.0 mm
07:34 AM 60.6°F15.9°C 30.6°F-0.8°C 32% 8.0 mph N12.9 kmh N 11.6 mph18.7 kmh 25.13 in851.0 mb 0.00 in0.0 mm 0.00 in/hr0.0 mm/hr 0.00 in0.0 mm
07:29 AM 60.4°F15.8°C 30.4°F-0.9°C 32% 7.0 mph N11.3 kmh N 11.2 mph18.0 kmh 25.13 in851.0 mb 0.00 in0.0 mm 0.00 in/hr0.0 mm/hr 0.00 in0.0 mm
07:24 AM 60.6°F15.9°C 30.6°F-0.8°C 32% 5.0 mph N8.0 kmh N 9.2 mph14.8 kmh 25.13 in851.0 mb 0.00 in0.0 mm 0.00 in/hr0.0 mm/hr 0.00 in0.0 mm
07:19 AM 59.5°F15.3°C 31.1°F-0.5°C 34% 2.0 mph N3.2 kmh N 7.8 mph12.6 kmh 25.13 in851.0 mb 0.00 in0.0 mm 0.00 in/hr0.0 mm/hr 0.00 in0.0 mm
07:14 AM 59.7°F15.4°C 31.3°F-0.4°C 34% 3.0 mph N4.8 kmh N 5.8 mph9.3 kmh 25.13 in851.0 mb 0.00 in0.0 mm 0.00 in/hr0.0 mm/hr 0.00 in0.0 mm
07:09 AM 60.4°F15.8°C 29.7°F-1.3°C 31% 4.0 mph N6.4 kmh N 6.3 mph10.1 kmh 25.13 in851.0 mb 0.00 in0.0 mm 0.00 in/hr0.0 mm/hr 0.00 in0.0 mm
07:04 AM 60.6°F15.9°C 28.9°F-1.7°C 30% 4.0 mph N6.4 kmh N 7.8 mph12.6 kmh 25.13 in851.0 mb 0.00 in0.0 mm 0.00 in/hr0.0 mm/hr 0.00 in0.0 mm
06:59 AM 61.0°F16.1°C 29.3°F-1.5°C 30% 4.0 mph N6.4 kmh N 6.9 mph11.1 kmh 25.10 in850.0 mb 0.00 in0.0 mm 0.00 in/hr0.0 mm/hr 0.00 in0.0 mm
06:54 AM 60.8°F16.0°C 30.0°F-1.1°C 31% 4.0 mph N6.4 kmh N 6.7 mph10.8 kmh 25.10 in850.0 mb 0.00 in0.0 mm 0.00 in/hr0.0 mm/hr 0.00 in0.0 mm
06:49 AM 59.4°F15.2°C 30.9°F-0.6°C 34% 3.0 mph NNE4.8 kmh NNE 6.7 mph10.8 kmh 25.10 in850.0 mb 0.00 in0.0 mm 0.00 in/hr0.0 mm/hr 0.00 in0.0 mm
06:44 AM 59.2°F15.1°C 30.9°F-0.6°C 34% 2.0 mph NNE3.2 kmh NNE 4.9 mph7.9 kmh 25.10 in850.0 mb 0.00 in0.0 mm 0.00 in/hr0.0 mm/hr 0.00 in0.0 mm
06:39 AM 58.6°F14.8°C 31.1°F-0.5°C 35% 3.0 mph NNE4.8 kmh NNE 4.5 mph7.2 kmh 25.10 in850.0 mb 0.00 in0.0 mm 0.00 in/hr0.0 mm/hr 0.00 in0.0 mm
06:34 AM 57.9°F14.4°C 31.1°F-0.5°C 36% 3.0 mph NNE4.8 kmh NNE 6.7 mph10.8 kmh 25.10 in850.0 mb 0.00 in0.0 mm 0.00 in/hr0.0 mm/hr 0.00 in0.0 mm
06:29 AM 56.7°F13.7°C 32.0°F0.0°C 39% 2.0 mph NNE3.2 kmh NNE 5.8 mph9.3 kmh 25.10 in850.0 mb 0.00 in0.0 mm 0.00 in/hr0.0 mm/hr 0.00 in0.0 mm
06:24 AM 56.5°F13.6°C 32.5°F0.3°C 40% 2.0 mph NNE3.2 kmh NNE 4.9 mph7.9 kmh 25.10 in850.0 mb 0.00 in0.0 mm 0.00 in/hr0.0 mm/hr 0.00 in0.0 mm
06:19 AM 56.7°F13.7°C 32.0°F0.0°C 39% 2.0 mph N3.2 kmh N 4.5 mph7.2 kmh 25.10 in850.0 mb 0.00 in0.0 mm 0.00 in/hr0.0 mm/hr 0.00 in0.0 mm
06:14 AM 57.2°F14.0°C 31.1°F-0.5°C 37% 3.0 mph 4.8 kmh 5.8 mph9.3 kmh 25.10 in850.0 mb 0.00 in0.0 mm 0.00 in/hr0.0 mm/hr 0.00 in0.0 mm
06:09 AM 58.1°F14.5°C 32.0°F0.0°C 37% 3.0 mph N4.8 kmh N 7.4 mph11.9 kmh 25.10 in850.0 mb 0.00 in0.0 mm 0.00 in/hr0.0 mm/hr 0.00 in0.0 mm
06:04 AM 57.6°F14.2°C 30.7°F-0.7°C 36% Calm Calm 4.5 mph7.2 kmh 25.10 in850.0 mb 0.00 in0.0 mm 0.00 in/hr0.0 mm/hr 0.00 in0.0 mm
05:59 AM 58.5°F14.7°C 30.9°F-0.6°C 35% Calm Calm 3.1 mph5.0 kmh 25.10 in850.0 mb 0.00 in0.0 mm 0.00 in/hr0.0 mm/hr 0.00 in0.0 mm
05:54 AM 59.2°F15.1°C 31.5°F-0.3°C 35% 2.0 mph N3.2 kmh N 4.0 mph6.4 kmh 25.10 in850.0 mb 0.00 in0.0 mm 0.00 in/hr0.0 mm/hr 0.00 in0.0 mm
05:49 AM 59.4°F15.2°C 31.6°F-0.2°C 35% 1.0 mph N1.6 kmh N 4.5 mph7.2 kmh 25.10 in850.0 mb 0.00 in0.0 mm 0.00 in/hr0.0 mm/hr 0.00 in0.0 mm
05:44 AM 59.2°F15.1°C 31.5°F-0.3°C 35% 2.0 mph N3.2 kmh N 4.9 mph7.9 kmh 25.10 in850.0 mb 0.00 in0.0 mm 0.00 in/hr0.0 mm/hr 0.00 in0.0 mm
05:39 AM 59.7°F15.4°C 31.3°F-0.4°C 34% 4.0 mph N6.4 kmh N 6.3 mph10.1 kmh 25.10 in850.0 mb 0.00 in0.0 mm 0.00 in/hr0.0 mm/hr 0.00 in0.0 mm
05:34 AM 60.1°F15.6°C 30.9°F-0.6°C 33% 5.0 mph N8.0 kmh N 6.9 mph11.1 kmh 25.10 in850.0 mb 0.00 in0.0 mm 0.00 in/hr0.0 mm/hr 0.00 in0.0 mm
05:29 AM 60.3°F15.7°C 30.2°F-1.0°C 32% 6.0 mph NNW9.7 kmh NNW 7.8 mph12.6 kmh 25.10 in850.0 mb 0.00 in0.0 mm 0.00 in/hr0.0 mm/hr 0.00 in0.0 mm
05:24 AM 60.8°F16.0°C 28.4°F-2.0°C 29% 4.0 mph N6.4 kmh N 6.9 mph11.1 kmh 25.10 in850.0 mb 0.00 in0.0 mm 0.00 in/hr0.0 mm/hr 0.00 in0.0 mm
05:19 AM 61.5°F16.4°C 26.2°F-3.2°C 26% 3.0 mph N4.8 kmh N 6.7 mph10.8 kmh 25.10 in850.0 mb 0.00 in0.0 mm 0.00 in/hr0.0 mm/hr 0.00 in0.0 mm
05:14 AM 63.5°F17.5°C 26.1°F-3.3°C 24% 2.0 mph N3.2 kmh N 3.6 mph5.8 kmh 25.10 in850.0 mb 0.00 in0.0 mm 0.00 in/hr0.0 mm/hr 0.00 in0.0 mm
05:09 AM 63.9°F17.7°C 26.4°F-3.1°C 24% 1.0 mph N1.6 kmh N 4.5 mph7.2 kmh 25.10 in850.0 mb 0.00 in0.0 mm 0.00 in/hr0.0 mm/hr 0.00 in0.0 mm
05:04 AM 63.0°F17.2°C 26.6°F-3.0°C 25% 2.0 mph N3.2 kmh N 4.0 mph6.4 kmh 25.10 in850.0 mb 0.00 in0.0 mm 0.00 in/hr0.0 mm/hr 0.00 in0.0 mm
04:59 AM 62.6°F17.0°C 26.2°F-3.2°C 25% 2.0 mph N3.2 kmh N 4.0 mph6.4 kmh 25.10 in850.0 mb 0.00 in0.0 mm 0.00 in/hr0.0 mm/hr 0.00 in0.0 mm
04:54 AM 62.8°F17.1°C 26.4°F-3.1°C 25% 4.0 mph N6.4 kmh N 7.8 mph12.6 kmh 25.10 in850.0 mb 0.00 in0.0 mm 0.00 in/hr0.0 mm/hr 0.00 in0.0 mm
04:49 AM 63.7°F17.6°C 27.1°F-2.7°C 25% 4.0 mph N6.4 kmh N 6.3 mph10.1 kmh 25.10 in850.0 mb 0.00 in0.0 mm 0.00 in/hr0.0 mm/hr 0.00 in0.0 mm
04:44 AM 62.4°F16.9°C 28.0°F-2.2°C 27% 3.0 mph NNE4.8 kmh NNE 5.4 mph8.7 kmh 25.10 in850.0 mb 0.00 in0.0 mm 0.00 in/hr0.0 mm/hr 0.00 in0.0 mm
04:39 AM 61.5°F16.4°C 28.9°F-1.7°C 29% 4.0 mph NNE6.4 kmh NNE 4.9 mph7.9 kmh 25.10 in850.0 mb 0.00 in0.0 mm 0.00 in/hr0.0 mm/hr 0.00 in0.0 mm
04:34 AM 60.8°F16.0°C 30.7°F-0.7°C 32% 2.0 mph NE3.2 kmh NE 6.3 mph10.1 kmh 25.10 in850.0 mb 0.00 in0.0 mm 0.00 in/hr0.0 mm/hr 0.00 in0.0 mm
04:29 AM 59.9°F15.5°C 31.5°F-0.3°C 34% 2.0 mph NE3.2 kmh NE 4.9 mph7.9 kmh 25.10 in850.0 mb 0.00 in0.0 mm 0.00 in/hr0.0 mm/hr 0.00 in0.0 mm
04:24 AM 59.4°F15.2°C 31.6°F-0.2°C 35% 3.0 mph NE4.8 kmh NE 5.8 mph9.3 kmh 25.10 in850.0 mb 0.00 in0.0 mm 0.00 in/hr0.0 mm/hr 0.00 in0.0 mm
04:19 AM 59.4°F15.2°C 31.6°F-0.2°C 35% 1.0 mph NE1.6 kmh NE 5.8 mph9.3 kmh 25.10 in850.0 mb 0.00 in0.0 mm 0.00 in/hr0.0 mm/hr 0.00 in0.0 mm
04:14 AM 59.2°F15.1°C 31.5°F-0.3°C 35% 2.0 mph NE3.2 kmh NE 3.6 mph5.8 kmh 25.10 in850.0 mb 0.00 in0.0 mm 0.00 in/hr0.0 mm/hr 0.00 in0.0 mm
04:09 AM 59.9°F15.5°C 31.5°F-0.3°C 34% 3.0 mph ENE4.8 kmh ENE 6.3 mph10.1 kmh 25.10 in850.0 mb 0.00 in0.0 mm 0.00 in/hr0.0 mm/hr 0.00 in0.0 mm
04:04 AM 59.7°F15.4°C 31.3°F-0.4°C 34% 2.0 mph ENE3.2 kmh ENE 4.9 mph7.9 kmh 25.10 in850.0 mb 0.00 in0.0 mm 0.00 in/hr0.0 mm/hr 0.00 in0.0 mm
03:59 AM 59.9°F15.5°C 31.5°F-0.3°C 34% 1.0 mph ENE1.6 kmh ENE 4.5 mph7.2 kmh 25.10 in850.0 mb 0.00 in0.0 mm 0.00 in/hr0.0 mm/hr 0.00 in0.0 mm
03:54 AM 60.1°F15.6°C 31.6°F-0.2°C 34% 1.0 mph ENE1.6 kmh ENE 3.1 mph5.0 kmh 25.10 in850.0 mb 0.00 in0.0 mm 0.00 in/hr0.0 mm/hr 0.00 in0.0 mm
03:49 AM 60.3°F15.7°C 31.1°F-0.5°C 33% 2.0 mph NE3.2 kmh NE 4.9 mph7.9 kmh 25.10 in850.0 mb 0.00 in0.0 mm 0.00 in/hr0.0 mm/hr 0.00 in0.0 mm
03:44 AM 60.8°F16.0°C 30.7°F-0.7°C 32% 3.0 mph N4.8 kmh N 6.3 mph10.1 kmh 25.07 in849.0 mb 0.00 in0.0 mm 0.00 in/hr0.0 mm/hr 0.00 in0.0 mm
03:39 AM 61.0°F16.1°C 30.2°F-1.0°C 31% 4.0 mph N6.4 kmh N 5.8 mph9.3 kmh 25.07 in849.0 mb 0.00 in0.0 mm 0.00 in/hr0.0 mm/hr 0.00 in0.0 mm
03:34 AM 60.6°F15.9°C 31.3°F-0.4°C 33% 2.0 mph N3.2 kmh N 6.7 mph10.8 kmh 25.07 in849.0 mb 0.00 in0.0 mm 0.00 in/hr0.0 mm/hr 0.00 in0.0 mm
03:29 AM 59.7°F15.4°C 29.1°F-1.6°C 31% 2.0 mph N3.2 kmh N 4.0 mph6.4 kmh 25.07 in849.0 mb 0.00 in0.0 mm 0.00 in/hr0.0 mm/hr 0.00 in0.0 mm
03:24 AM 60.1°F15.6°C 26.1°F-3.3°C 27% 4.0 mph NNE6.4 kmh NNE 5.8 mph9.3 kmh 25.07 in849.0 mb 0.00 in0.0 mm 0.00 in/hr0.0 mm/hr 0.00 in0.0 mm
03:19 AM 60.8°F16.0°C 24.8°F-4.0°C 25% 4.0 mph NE6.4 kmh NE 6.9 mph11.1 kmh 25.07 in849.0 mb 0.00 in0.0 mm 0.00 in/hr0.0 mm/hr 0.00 in0.0 mm
03:14 AM 62.2°F16.8°C 23.9°F-4.5°C 23% 2.0 mph E3.2 kmh E 6.7 mph10.8 kmh 25.07 in849.0 mb 0.00 in0.0 mm 0.00 in/hr0.0 mm/hr 0.00 in0.0 mm
03:08 AM 63.7°F17.6°C 19.4°F-7.0°C 18% 1.0 mph ENE1.6 kmh ENE 5.8 mph9.3 kmh 25.07 in849.0 mb 0.00 in0.0 mm 0.00 in/hr0.0 mm/hr 0.00 in0.0 mm
03:03 AM 64.4°F18.0°C 15.8°F-9.0°C 15% 1.0 mph NE1.6 kmh NE 4.0 mph6.4 kmh 25.07 in849.0 mb 0.00 in0.0 mm 0.00 in/hr0.0 mm/hr 0.00 in0.0 mm
02:58 AM 64.9°F18.3°C 16.2°F-8.8°C 15% Calm Calm 5.8 mph9.3 kmh 25.07 in849.0 mb 0.00 in0.0 mm 0.00 in/hr0.0 mm/hr 0.00 in0.0 mm
02:53 AM 66.0°F18.9°C 12.0°F-11.1°C 12% Calm Calm 2.7 mph4.3 kmh 25.07 in849.0 mb 0.00 in0.0 mm 0.00 in/hr0.0 mm/hr 0.00 in0.0 mm
02:48 AM 66.6°F19.2°C 12.4°F-10.9°C 12% Calm Calm -- 25.07 in849.0 mb 0.00 in0.0 mm 0.00 in/hr0.0 mm/hr 0.00 in0.0 mm
02:43 AM 66.4°F19.1°C 12.2°F-11.0°C 12% Calm Calm 2.7 mph4.3 kmh 25.07 in849.0 mb 0.00 in0.0 mm 0.00 in/hr0.0 mm/hr 0.00 in0.0 mm
02:38 AM 66.6°F19.2°C 12.4°F-10.9°C 12% Calm Calm -- 25.07 in849.0 mb 0.00 in0.0 mm 0.00 in/hr0.0 mm/hr 0.00 in0.0 mm
02:33 AM 66.0°F18.9°C 17.1°F-8.3°C 15% 1.0 mph E1.6 kmh E 4.9 mph7.9 kmh 25.07 in849.0 mb 0.00 in0.0 mm 0.00 in/hr0.0 mm/hr 0.00 in0.0 mm
02:28 AM 65.8°F18.8°C 16.9°F-8.4°C 15% 2.0 mph E3.2 kmh E 3.6 mph5.8 kmh 25.07 in849.0 mb 0.00 in0.0 mm 0.00 in/hr0.0 mm/hr 0.00 in0.0 mm
02:23 AM 64.6°F18.1°C 20.1°F-6.6°C 18% 1.0 mph NE1.6 kmh NE 5.4 mph8.7 kmh 25.07 in849.0 mb 0.00 in0.0 mm 0.00 in/hr0.0 mm/hr 0.00 in0.0 mm
02:18 AM 64.4°F18.0°C 19.9°F-6.7°C 18% Calm Calm 4.0 mph6.4 kmh 25.07 in849.0 mb 0.00 in0.0 mm 0.00 in/hr0.0 mm/hr 0.00 in0.0 mm
02:13 AM 63.3°F17.4°C 19.0°F-7.2°C 18% Calm Calm 2.7 mph4.3 kmh 25.07 in849.0 mb 0.00 in0.0 mm 0.00 in/hr0.0 mm/hr 0.00 in0.0 mm
02:08 AM 64.2°F17.9°C 15.6°F-9.1°C 15% 1.0 mph NNE1.6 kmh NNE 3.1 mph5.0 kmh 25.07 in849.0 mb 0.00 in0.0 mm 0.00 in/hr0.0 mm/hr 0.00 in0.0 mm
02:03 AM 64.8°F18.2°C 16.0°F-8.9°C 15% 1.0 mph NNE1.6 kmh NNE 4.9 mph7.9 kmh 25.07 in849.0 mb 0.00 in0.0 mm 0.00 in/hr0.0 mm/hr 0.00 in0.0 mm
01:58 AM 67.3°F19.6°C 12.9°F-10.6°C 12% Calm Calm 5.4 mph8.7 kmh 25.07 in849.0 mb 0.00 in0.0 mm 0.00 in/hr0.0 mm/hr 0.00 in0.0 mm
01:53 AM 66.9°F19.4°C 12.7°F-10.7°C 12% 1.0 mph NNE1.6 kmh NNE 2.7 mph4.3 kmh 25.07 in849.0 mb 0.00 in0.0 mm 0.00 in/hr0.0 mm/hr 0.00 in0.0 mm
01:48 AM 66.2°F19.0°C 12.0°F-11.1°C 12% 3.0 mph NNE4.8 kmh NNE 5.4 mph8.7 kmh 25.07 in849.0 mb 0.00 in0.0 mm 0.00 in/hr0.0 mm/hr 0.00 in0.0 mm
01:43 AM 66.2°F19.0°C 12.0°F-11.1°C 12% 3.0 mph NNE4.8 kmh NNE 4.5 mph7.2 kmh 25.07 in849.0 mb 0.00 in0.0 mm 0.00 in/hr0.0 mm/hr 0.00 in0.0 mm
01:38 AM 66.4°F19.1°C 12.2°F-11.0°C 12% 2.0 mph NNE3.2 kmh NNE 5.4 mph8.7 kmh 25.07 in849.0 mb 0.00 in0.0 mm 0.00 in/hr0.0 mm/hr 0.00 in0.0 mm
01:33 AM 66.4°F19.1°C 12.2°F-11.0°C 12% 2.0 mph NNE3.2 kmh NNE 4.5 mph7.2 kmh 25.07 in849.0 mb 0.00 in0.0 mm 0.00 in/hr0.0 mm/hr 0.00 in0.0 mm
01:28 AM 66.9°F19.4°C 12.7°F-10.7°C 12% 2.0 mph NNE3.2 kmh NNE 5.4 mph8.7 kmh 25.10 in850.0 mb 0.00 in0.0 mm 0.00 in/hr0.0 mm/hr 0.00 in0.0 mm
01:23 AM 67.3°F19.6°C 12.9°F-10.6°C 12% 4.0 mph N6.4 kmh N 6.7 mph10.8 kmh 25.10 in850.0 mb 0.00 in0.0 mm 0.00 in/hr0.0 mm/hr 0.00 in0.0 mm
01:18 AM 67.1°F19.5°C 12.7°F-10.7°C 12% 4.0 mph N6.4 kmh N 6.7 mph10.8 kmh 25.10 in850.0 mb 0.00 in0.0 mm 0.00 in/hr0.0 mm/hr 0.00 in0.0 mm
01:13 AM 67.1°F19.5°C 12.7°F-10.7°C 12% 4.0 mph SW6.4 kmh SW 7.4 mph11.9 kmh 25.10 in850.0 mb 0.00 in0.0 mm 0.00 in/hr0.0 mm/hr 0.00 in0.0 mm
01:08 AM 67.3°F19.6°C 12.9°F-10.6°C 12% 4.0 mph SW6.4 kmh SW 5.4 mph8.7 kmh 25.10 in850.0 mb 0.00 in0.0 mm 0.00 in/hr0.0 mm/hr 0.00 in0.0 mm
01:03 AM 66.9°F19.4°C 17.8°F-7.9°C 15% 4.0 mph SW6.4 kmh SW 6.3 mph10.1 kmh 25.10 in850.0 mb 0.00 in0.0 mm 0.00 in/hr0.0 mm/hr 0.00 in0.0 mm
12:58 AM 67.3°F19.6°C 18.1°F-7.7°C 15% 4.0 mph SW6.4 kmh SW 5.4 mph8.7 kmh 25.10 in850.0 mb 0.00 in0.0 mm 0.00 in/hr0.0 mm/hr 0.00 in0.0 mm
12:53 AM 67.6°F19.8°C 18.3°F-7.6°C 15% 4.0 mph SW6.4 kmh SW 6.3 mph10.1 kmh 25.10 in850.0 mb 0.00 in0.0 mm 0.00 in/hr0.0 mm/hr 0.00 in0.0 mm
12:48 AM 68.2°F20.1°C 18.9°F-7.3°C 15% 3.0 mph SW4.8 kmh SW 4.9 mph7.9 kmh 25.10 in850.0 mb 0.00 in0.0 mm 0.00 in/hr0.0 mm/hr 0.00 in0.0 mm
12:43 AM 67.8°F19.9°C 18.5°F-7.5°C 15% 4.0 mph SW6.4 kmh SW 5.4 mph8.7 kmh 25.10 in850.0 mb 0.00 in0.0 mm 0.00 in/hr0.0 mm/hr 0.00 in0.0 mm
12:38 AM 66.7°F19.3°C 20.5°F-6.4°C 17% 3.0 mph SW4.8 kmh SW 5.8 mph9.3 kmh 25.10 in850.0 mb 0.00 in0.0 mm 0.00 in/hr0.0 mm/hr 0.00 in0.0 mm
12:33 AM 65.8°F18.8°C 23.7°F-4.6°C 20% 2.0 mph SW3.2 kmh SW 5.8 mph9.3 kmh 25.10 in850.0 mb 0.00 in0.0 mm 0.00 in/hr0.0 mm/hr 0.00 in0.0 mm
12:28 AM 65.8°F18.8°C 25.9°F-3.4°C 22% 2.0 mph SSW3.2 kmh SSW 6.3 mph10.1 kmh 25.10 in850.0 mb 0.00 in0.0 mm 0.00 in/hr0.0 mm/hr 0.00 in0.0 mm
12:23 AM 65.7°F18.7°C 25.7°F-3.5°C 22% Calm Calm 4.5 mph7.2 kmh 25.10 in850.0 mb 0.00 in0.0 mm 0.00 in/hr0.0 mm/hr 0.00 in0.0 mm
12:18 AM 65.3°F18.5°C 26.6°F-3.0°C 23% Calm Calm -- 25.10 in850.0 mb 0.00 in0.0 mm 0.00 in/hr0.0 mm/hr 0.00 in0.0 mm
12:13 AM 65.3°F18.5°C 26.6°F-3.0°C 23% Calm Calm -- 25.10 in850.0 mb 0.00 in0.0 mm 0.00 in/hr0.0 mm/hr 0.00 in0.0 mm
12:08 AM 65.5°F18.6°C 26.8°F-2.9°C 23% Calm Calm 3.1 mph5.0 kmh 25.10 in850.0 mb 0.00 in0.0 mm 0.00 in/hr0.0 mm/hr 0.00 in0.0 mm
12:03 AM 65.7°F18.7°C 26.8°F-2.9°C 23% 1.0 mph SW1.6 kmh SW 4.0 mph6.4 kmh 25.10 in850.0 mb 0.00 in0.0 mm 0.00 in/hr0.0 mm/hr 0.00 in0.0 mm